sensor_id;sensor_type;location;lat;lon;timestamp;temperature;humidity
64226;DHT22;50545;56.064;26.178;2024-03-25T00:01:44;1.80;99.90
64226;DHT22;50545;56.064;26.178;2024-03-25T00:04:10;1.80;99.90
64226;DHT22;50545;56.064;26.178;2024-03-25T00:06:36;1.80;99.90
64226;DHT22;50545;56.064;26.178;2024-03-25T00:09:05;1.80;99.90
64226;DHT22;50545;56.064;26.178;2024-03-25T00:11:33;1.80;99.90
64226;DHT22;50545;56.064;26.178;2024-03-25T00:14:03;1.90;99.90
64226;DHT22;50545;56.064;26.178;2024-03-25T00:16:29;1.90;99.90
64226;DHT22;50545;56.064;26.178;2024-03-25T00:18:55;1.90;99.90
64226;DHT22;50545;56.064;26.178;2024-03-25T00:21:22;1.90;99.90
64226;DHT22;50545;56.064;26.178;2024-03-25T00:23:48;1.90;99.90
64226;DHT22;50545;56.064;26.178;2024-03-25T00:26:14;1.90;99.90
64226;DHT22;50545;56.064;26.178;2024-03-25T00:28:40;2.00;99.90
64226;DHT22;50545;56.064;26.178;2024-03-25T00:31:07;1.90;99.90
64226;DHT22;50545;56.064;26.178;2024-03-25T00:33:33;2.00;99.90
64226;DHT22;50545;56.064;26.178;2024-03-25T00:35:59;1.90;99.90
64226;DHT22;50545;56.064;26.178;2024-03-25T00:38:26;1.90;99.90
64226;DHT22;50545;56.064;26.178;2024-03-25T00:40:52;1.90;99.90
64226;DHT22;50545;56.064;26.178;2024-03-25T00:43:19;1.90;99.90
64226;DHT22;50545;56.064;26.178;2024-03-25T00:45:46;1.80;99.90
64226;DHT22;50545;56.064;26.178;2024-03-25T00:48:12;1.80;99.90
64226;DHT22;50545;56.064;26.178;2024-03-25T00:50:38;1.80;99.90
64226;DHT22;50545;56.064;26.178;2024-03-25T00:53:05;1.70;99.90
64226;DHT22;50545;56.064;26.178;2024-03-25T00:55:31;1.70;99.90
64226;DHT22;50545;56.064;26.178;2024-03-25T00:57:57;1.60;99.90
64226;DHT22;50545;56.064;26.178;2024-03-25T01:00:23;1.60;99.90
64226;DHT22;50545;56.064;26.178;2024-03-25T01:02:50;1.60;99.90
64226;DHT22;50545;56.064;26.178;2024-03-25T01:05:16;1.50;99.90
64226;DHT22;50545;56.064;26.178;2024-03-25T01:07:42;1.50;99.90
64226;DHT22;50545;56.064;26.178;2024-03-25T01:10:09;1.50;99.90
64226;DHT22;50545;56.064;26.178;2024-03-25T01:12:36;1.40;99.90
64226;DHT22;50545;56.064;26.178;2024-03-25T01:15:02;1.40;99.90
64226;DHT22;50545;56.064;26.178;2024-03-25T01:17:29;1.40;99.90
64226;DHT22;50545;56.064;26.178;2024-03-25T01:19:55;1.40;99.90
64226;DHT22;50545;56.064;26.178;2024-03-25T01:22:22;1.30;99.90
64226;DHT22;50545;56.064;26.178;2024-03-25T01:24:48;1.40;99.90
64226;DHT22;50545;56.064;26.178;2024-03-25T01:27:14;1.30;99.90
64226;DHT22;50545;56.064;26.178;2024-03-25T01:29:40;1.30;99.90
64226;DHT22;50545;56.064;26.178;2024-03-25T01:32:07;1.30;99.90
64226;DHT22;50545;56.064;26.178;2024-03-25T01:34:33;1.30;99.90
64226;DHT22;50545;56.064;26.178;2024-03-25T01:36:59;1.30;99.90
64226;DHT22;50545;56.064;26.178;2024-03-25T01:39:25;1.40;99.90
64226;DHT22;50545;56.064;26.178;2024-03-25T01:41:51;1.40;99.90
64226;DHT22;50545;56.064;26.178;2024-03-25T01:44:18;1.40;99.90
64226;DHT22;50545;56.064;26.178;2024-03-25T01:46:44;1.30;99.90
64226;DHT22;50545;56.064;26.178;2024-03-25T01:49:11;1.30;99.90
64226;DHT22;50545;56.064;26.178;2024-03-25T01:51:38;1.30;99.90
64226;DHT22;50545;56.064;26.178;2024-03-25T01:54:06;1.30;99.90
64226;DHT22;50545;56.064;26.178;2024-03-25T01:56:33;1.30;99.90
64226;DHT22;50545;56.064;26.178;2024-03-25T01:59:01;1.30;99.90
64226;DHT22;50545;56.064;26.178;2024-03-25T02:01:28;1.30;99.90
64226;DHT22;50545;56.064;26.178;2024-03-25T02:03:55;1.30;99.90
64226;DHT22;50545;56.064;26.178;2024-03-25T02:06:22;1.30;99.90
64226;DHT22;50545;56.064;26.178;2024-03-25T02:08:50;1.40;99.90
64226;DHT22;50545;56.064;26.178;2024-03-25T02:11:18;1.40;99.90
64226;DHT22;50545;56.064;26.178;2024-03-25T02:13:45;1.40;99.90
64226;DHT22;50545;56.064;26.178;2024-03-25T02:16:12;1.40;99.90
64226;DHT22;50545;56.064;26.178;2024-03-25T02:18:38;1.40;99.90
64226;DHT22;50545;56.064;26.178;2024-03-25T02:21:04;1.40;99.90
64226;DHT22;50545;56.064;26.178;2024-03-25T02:23:32;1.40;99.90
64226;DHT22;50545;56.064;26.178;2024-03-25T02:26:00;1.40;99.90
64226;DHT22;50545;56.064;26.178;2024-03-25T02:28:26;1.40;99.90
64226;DHT22;50545;56.064;26.178;2024-03-25T02:30:52;1.40;99.90
64226;DHT22;50545;56.064;26.178;2024-03-25T02:33:19;1.40;99.90
64226;DHT22;50545;56.064;26.178;2024-03-25T02:35:45;1.40;99.90
64226;DHT22;50545;56.064;26.178;2024-03-25T02:38:11;1.40;99.90
64226;DHT22;50545;56.064;26.178;2024-03-25T02:40:38;1.50;99.90
64226;DHT22;50545;56.064;26.178;2024-03-25T02:43:04;1.50;99.90
64226;DHT22;50545;56.064;26.178;2024-03-25T02:45:33;1.50;99.90
64226;DHT22;50545;56.064;26.178;2024-03-25T02:47:59;1.50;99.90
64226;DHT22;50545;56.064;26.178;2024-03-25T02:50:26;1.50;99.90
64226;DHT22;50545;56.064;26.178;2024-03-25T02:52:52;1.50;99.90
64226;DHT22;50545;56.064;26.178;2024-03-25T02:55:19;1.50;99.90
64226;DHT22;50545;56.064;26.178;2024-03-25T02:57:45;1.50;99.90
64226;DHT22;50545;56.064;26.178;2024-03-25T03:00:12;1.50;99.90
64226;DHT22;50545;56.064;26.178;2024-03-25T03:02:39;1.50;99.90
64226;DHT22;50545;56.064;26.178;2024-03-25T03:05:06;1.50;99.90
64226;DHT22;50545;56.064;26.178;2024-03-25T03:07:32;1.50;99.90
64226;DHT22;50545;56.064;26.178;2024-03-25T03:09:58;1.50;99.90
64226;DHT22;50545;56.064;26.178;2024-03-25T03:12:25;1.50;99.90
64226;DHT22;50545;56.064;26.178;2024-03-25T03:14:51;1.50;99.90
64226;DHT22;50545;56.064;26.178;2024-03-25T03:17:17;1.50;99.90
64226;DHT22;50545;56.064;26.178;2024-03-25T03:19:43;1.50;99.90
64226;DHT22;50545;56.064;26.178;2024-03-25T03:22:11;1.50;99.90
64226;DHT22;50545;56.064;26.178;2024-03-25T03:24:37;1.50;99.90
64226;DHT22;50545;56.064;26.178;2024-03-25T03:27:04;1.50;99.90
64226;DHT22;50545;56.064;26.178;2024-03-25T03:29:30;1.50;99.90
64226;DHT22;50545;56.064;26.178;2024-03-25T03:31:56;1.50;99.90
64226;DHT22;50545;56.064;26.178;2024-03-25T03:34:22;1.50;99.90
64226;DHT22;50545;56.064;26.178;2024-03-25T03:36:49;1.50;99.90
64226;DHT22;50545;56.064;26.178;2024-03-25T03:39:15;1.60;99.90
64226;DHT22;50545;56.064;26.178;2024-03-25T03:41:42;1.60;99.90
64226;DHT22;50545;56.064;26.178;2024-03-25T03:44:08;1.60;99.90
64226;DHT22;50545;56.064;26.178;2024-03-25T03:46:35;1.50;99.90
64226;DHT22;50545;56.064;26.178;2024-03-25T03:49:01;1.50;99.90
64226;DHT22;50545;56.064;26.178;2024-03-25T03:51:28;1.60;99.90
64226;DHT22;50545;56.064;26.178;2024-03-25T03:53:54;1.50;99.90
64226;DHT22;50545;56.064;26.178;2024-03-25T03:56:20;1.50;99.90
64226;DHT22;50545;56.064;26.178;2024-03-25T03:58:47;1.60;99.90
64226;DHT22;50545;56.064;26.178;2024-03-25T04:01:19;1.60;99.90
64226;DHT22;50545;56.064;26.178;2024-03-25T04:03:45;1.60;99.90
64226;DHT22;50545;56.064;26.178;2024-03-25T04:06:12;1.60;99.90
64226;DHT22;50545;56.064;26.178;2024-03-25T04:08:40;1.60;99.90
64226;DHT22;50545;56.064;26.178;2024-03-25T04:11:07;1.60;99.90
64226;DHT22;50545;56.064;26.178;2024-03-25T04:13:36;1.70;99.90
64226;DHT22;50545;56.064;26.178;2024-03-25T04:16:04;1.70;99.90
64226;DHT22;50545;56.064;26.178;2024-03-25T04:18:32;1.60;99.90
64226;DHT22;50545;56.064;26.178;2024-03-25T04:20:59;1.70;99.90
64226;DHT22;50545;56.064;26.178;2024-03-25T04:23:26;1.70;99.90
64226;DHT22;50545;56.064;26.178;2024-03-25T04:25:52;1.70;99.90
64226;DHT22;50545;56.064;26.178;2024-03-25T04:28:19;1.70;99.90
64226;DHT22;50545;56.064;26.178;2024-03-25T04:30:53;1.70;99.90
64226;DHT22;50545;56.064;26.178;2024-03-25T04:33:19;1.70;99.90
64226;DHT22;50545;56.064;26.178;2024-03-25T04:35:47;1.70;99.90
64226;DHT22;50545;56.064;26.178;2024-03-25T04:38:15;1.70;99.90
64226;DHT22;50545;56.064;26.178;2024-03-25T04:40:41;1.80;99.90
64226;DHT22;50545;56.064;26.178;2024-03-25T04:43:07;1.80;99.90
64226;DHT22;50545;56.064;26.178;2024-03-25T04:45:34;1.80;99.90
64226;DHT22;50545;56.064;26.178;2024-03-25T04:48:00;1.80;99.90
64226;DHT22;50545;56.064;26.178;2024-03-25T04:50:26;1.80;99.90
64226;DHT22;50545;56.064;26.178;2024-03-25T04:52:53;1.90;99.90
64226;DHT22;50545;56.064;26.178;2024-03-25T04:55:19;1.90;99.90
64226;DHT22;50545;56.064;26.178;2024-03-25T04:57:45;1.90;99.90
64226;DHT22;50545;56.064;26.178;2024-03-25T05:00:12;1.90;99.90
64226;DHT22;50545;56.064;26.178;2024-03-25T05:02:38;2.00;99.90
64226;DHT22;50545;56.064;26.178;2024-03-25T05:05:05;2.00;99.90
64226;DHT22;50545;56.064;26.178;2024-03-25T05:07:33;2.00;99.90
64226;DHT22;50545;56.064;26.178;2024-03-25T05:09:59;2.00;99.90
64226;DHT22;50545;56.064;26.178;2024-03-25T05:12:26;2.10;99.90
64226;DHT22;50545;56.064;26.178;2024-03-25T05:14:56;2.10;99.90
64226;DHT22;50545;56.064;26.178;2024-03-25T05:17:23;2.10;99.90
64226;DHT22;50545;56.064;26.178;2024-03-25T05:19:49;2.10;99.90
64226;DHT22;50545;56.064;26.178;2024-03-25T05:22:15;2.10;99.90
64226;DHT22;50545;56.064;26.178;2024-03-25T05:24:42;2.20;99.90
64226;DHT22;50545;56.064;26.178;2024-03-25T05:27:08;2.20;99.90
64226;DHT22;50545;56.064;26.178;2024-03-25T05:29:34;2.30;99.90
64226;DHT22;50545;56.064;26.178;2024-03-25T05:32:01;2.30;99.90
64226;DHT22;50545;56.064;26.178;2024-03-25T05:34:28;2.40;99.90
64226;DHT22;50545;56.064;26.178;2024-03-25T05:36:55;2.40;99.90
64226;DHT22;50545;56.064;26.178;2024-03-25T05:39:21;2.50;99.90
64226;DHT22;50545;56.064;26.178;2024-03-25T05:41:48;2.50;99.90
64226;DHT22;50545;56.064;26.178;2024-03-25T05:44:15;2.60;99.90
64226;DHT22;50545;56.064;26.178;2024-03-25T05:46:41;2.60;99.90
64226;DHT22;50545;56.064;26.178;2024-03-25T05:49:08;2.60;99.90
64226;DHT22;50545;56.064;26.178;2024-03-25T05:51:34;2.70;99.90
64226;DHT22;50545;56.064;26.178;2024-03-25T05:54:00;2.70;99.90
64226;DHT22;50545;56.064;26.178;2024-03-25T05:56:27;2.80;99.90
64226;DHT22;50545;56.064;26.178;2024-03-25T05:59:00;2.90;99.90
64226;DHT22;50545;56.064;26.178;2024-03-25T06:01:27;2.90;99.90
64226;DHT22;50545;56.064;26.178;2024-03-25T06:03:53;3.00;99.90
64226;DHT22;50545;56.064;26.178;2024-03-25T06:06:20;3.00;99.90
64226;DHT22;50545;56.064;26.178;2024-03-25T06:08:46;3.10;99.90
64226;DHT22;50545;56.064;26.178;2024-03-25T06:11:13;3.10;99.90
64226;DHT22;50545;56.064;26.178;2024-03-25T06:13:39;3.20;99.90
64226;DHT22;50545;56.064;26.178;2024-03-25T06:16:05;3.20;99.90
64226;DHT22;50545;56.064;26.178;2024-03-25T06:18:32;3.30;99.90
64226;DHT22;50545;56.064;26.178;2024-03-25T06:20:58;3.30;99.90
64226;DHT22;50545;56.064;26.178;2024-03-25T06:23:28;3.40;99.90
64226;DHT22;50545;56.064;26.178;2024-03-25T06:25:56;3.40;99.90
64226;DHT22;50545;56.064;26.178;2024-03-25T06:28:22;3.50;99.90
64226;DHT22;50545;56.064;26.178;2024-03-25T06:30:51;3.50;99.90
64226;DHT22;50545;56.064;26.178;2024-03-25T06:33:36;3.60;99.90
64226;DHT22;50545;56.064;26.178;2024-03-25T06:36:22;3.60;99.90
64226;DHT22;50545;56.064;26.178;2024-03-25T06:38:48;3.70;99.90
64226;DHT22;50545;56.064;26.178;2024-03-25T06:41:14;3.70;99.90
64226;DHT22;50545;56.064;26.178;2024-03-25T06:43:41;3.80;99.90
64226;DHT22;50545;56.064;26.178;2024-03-25T06:46:07;3.80;99.90
64226;DHT22;50545;56.064;26.178;2024-03-25T06:48:34;3.90;99.90
64226;DHT22;50545;56.064;26.178;2024-03-25T06:51:03;4.00;99.90
64226;DHT22;50545;56.064;26.178;2024-03-25T06:53:29;4.00;99.90
64226;DHT22;50545;56.064;26.178;2024-03-25T06:56:00;4.10;99.90
64226;DHT22;50545;56.064;26.178;2024-03-25T06:58:27;4.10;99.90
64226;DHT22;50545;56.064;26.178;2024-03-25T07:00:54;4.20;99.90
64226;DHT22;50545;56.064;26.178;2024-03-25T07:03:22;4.20;99.90
64226;DHT22;50545;56.064;26.178;2024-03-25T07:05:50;4.30;99.90
64226;DHT22;50545;56.064;26.178;2024-03-25T07:08:19;4.40;99.90
64226;DHT22;50545;56.064;26.178;2024-03-25T07:10:46;4.50;99.90
64226;DHT22;50545;56.064;26.178;2024-03-25T07:13:13;4.60;99.90
64226;DHT22;50545;56.064;26.178;2024-03-25T07:15:39;4.70;99.90
64226;DHT22;50545;56.064;26.178;2024-03-25T07:18:06;4.80;99.90
64226;DHT22;50545;56.064;26.178;2024-03-25T07:20:33;4.90;99.90
64226;DHT22;50545;56.064;26.178;2024-03-25T07:22:59;5.00;99.90
64226;DHT22;50545;56.064;26.178;2024-03-25T07:25:25;5.10;99.90
64226;DHT22;50545;56.064;26.178;2024-03-25T07:27:52;5.20;99.90
64226;DHT22;50545;56.064;26.178;2024-03-25T07:30:19;5.30;99.90
64226;DHT22;50545;56.064;26.178;2024-03-25T07:32:45;5.30;99.90
64226;DHT22;50545;56.064;26.178;2024-03-25T07:35:11;5.40;99.90
64226;DHT22;50545;56.064;26.178;2024-03-25T07:37:38;5.50;99.90
64226;DHT22;50545;56.064;26.178;2024-03-25T07:40:05;5.60;99.90
64226;DHT22;50545;56.064;26.178;2024-03-25T07:42:31;5.70;99.90
64226;DHT22;50545;56.064;26.178;2024-03-25T07:44:58;5.70;99.90
64226;DHT22;50545;56.064;26.178;2024-03-25T07:47:24;5.70;99.90
64226;DHT22;50545;56.064;26.178;2024-03-25T07:49:50;5.70;99.90
64226;DHT22;50545;56.064;26.178;2024-03-25T07:52:16;5.80;99.90
64226;DHT22;50545;56.064;26.178;2024-03-25T07:54:43;5.80;99.90
64226;DHT22;50545;56.064;26.178;2024-03-25T07:57:09;5.90;99.90
64226;DHT22;50545;56.064;26.178;2024-03-25T07:59:35;6.00;99.90
64226;DHT22;50545;56.064;26.178;2024-03-25T08:02:01;6.10;99.90
64226;DHT22;50545;56.064;26.178;2024-03-25T08:04:28;6.10;99.90
64226;DHT22;50545;56.064;26.178;2024-03-25T08:06:55;6.10;99.90
64226;DHT22;50545;56.064;26.178;2024-03-25T08:09:21;6.00;99.90
64226;DHT22;50545;56.064;26.178;2024-03-25T08:11:47;6.10;99.90
64226;DHT22;50545;56.064;26.178;2024-03-25T08:14:16;6.20;99.90
64226;DHT22;50545;56.064;26.178;2024-03-25T08:16:42;6.30;99.40
64226;DHT22;50545;56.064;26.178;2024-03-25T08:19:09;6.40;98.60
64226;DHT22;50545;56.064;26.178;2024-03-25T08:21:36;6.50;99.10
64226;DHT22;50545;56.064;26.178;2024-03-25T08:24:02;6.50;99.90
64226;DHT22;50545;56.064;26.178;2024-03-25T08:26:28;6.70;99.90
64226;DHT22;50545;56.064;26.178;2024-03-25T08:28:54;6.70;97.90
64226;DHT22;50545;56.064;26.178;2024-03-25T08:31:21;6.70;96.20
64226;DHT22;50545;56.064;26.178;2024-03-25T08:33:47;6.70;97.10
64226;DHT22;50545;56.064;26.178;2024-03-25T08:36:13;6.60;97.10
64226;DHT22;50545;56.064;26.178;2024-03-25T08:38:39;6.50;98.10
64226;DHT22;50545;56.064;26.178;2024-03-25T08:41:06;6.50;98.80
64226;DHT22;50545;56.064;26.178;2024-03-25T08:43:32;6.40;97.80
64226;DHT22;50545;56.064;26.178;2024-03-25T08:45:58;6.40;97.70
64226;DHT22;50545;56.064;26.178;2024-03-25T08:48:25;6.30;97.70
64226;DHT22;50545;56.064;26.178;2024-03-25T08:50:51;6.20;98.80
64226;DHT22;50545;56.064;26.178;2024-03-25T08:53:17;6.20;99.00
64226;DHT22;50545;56.064;26.178;2024-03-25T08:55:47;6.30;99.00
64226;DHT22;50545;56.064;26.178;2024-03-25T08:58:14;6.30;99.60
64226;DHT22;50545;56.064;26.178;2024-03-25T09:00:40;6.40;99.50
64226;DHT22;50545;56.064;26.178;2024-03-25T09:03:06;6.60;99.90
64226;DHT22;50545;56.064;26.178;2024-03-25T09:05:34;6.70;98.50
64226;DHT22;50545;56.064;26.178;2024-03-25T09:08:01;6.80;97.90
64226;DHT22;50545;56.064;26.178;2024-03-25T09:10:29;6.70;97.70
64226;DHT22;50545;56.064;26.178;2024-03-25T09:13:14;6.80;98.40
64226;DHT22;50545;56.064;26.178;2024-03-25T09:15:40;6.70;97.30
64226;DHT22;50545;56.064;26.178;2024-03-25T09:18:06;6.70;97.20
64226;DHT22;50545;56.064;26.178;2024-03-25T09:20:32;6.70;98.80
64226;DHT22;50545;56.064;26.178;2024-03-25T09:22:59;6.80;98.10
64226;DHT22;50545;56.064;26.178;2024-03-25T09:25:25;6.80;98.60
64226;DHT22;50545;56.064;26.178;2024-03-25T09:27:51;6.90;97.70
64226;DHT22;50545;56.064;26.178;2024-03-25T09:30:18;7.00;97.70
64226;DHT22;50545;56.064;26.178;2024-03-25T09:32:45;7.10;97.10
64226;DHT22;50545;56.064;26.178;2024-03-25T09:35:12;7.20;97.30
64226;DHT22;50545;56.064;26.178;2024-03-25T09:37:38;7.30;96.00
64226;DHT22;50545;56.064;26.178;2024-03-25T09:40:05;7.30;96.50
64226;DHT22;50545;56.064;26.178;2024-03-25T09:42:49;7.30;96.80
64226;DHT22;50545;56.064;26.178;2024-03-25T09:45:18;7.40;95.70
64226;DHT22;50545;56.064;26.178;2024-03-25T09:47:46;7.50;94.70
64226;DHT22;50545;56.064;26.178;2024-03-25T09:50:13;7.50;95.30
64226;DHT22;50545;56.064;26.178;2024-03-25T09:52:49;7.50;95.40
64226;DHT22;50545;56.064;26.178;2024-03-25T09:55:16;7.50;96.10
64226;DHT22;50545;56.064;26.178;2024-03-25T09:57:45;7.40;95.30
64226;DHT22;50545;56.064;26.178;2024-03-25T10:00:12;7.40;95.10
64226;DHT22;50545;56.064;26.178;2024-03-25T10:02:40;7.30;95.20
64226;DHT22;50545;56.064;26.178;2024-03-25T10:05:07;7.30;95.20
64226;DHT22;50545;56.064;26.178;2024-03-25T10:07:34;7.30;95.60
64226;DHT22;50545;56.064;26.178;2024-03-25T10:10:07;7.40;95.20
64226;DHT22;50545;56.064;26.178;2024-03-25T10:12:36;7.40;97.00
64226;DHT22;50545;56.064;26.178;2024-03-25T10:15:03;7.60;94.80
64226;DHT22;50545;56.064;26.178;2024-03-25T10:17:31;7.80;94.50
64226;DHT22;50545;56.064;26.178;2024-03-25T10:19:57;7.80;94.60
64226;DHT22;50545;56.064;26.178;2024-03-25T10:22:23;7.90;94.10
64226;DHT22;50545;56.064;26.178;2024-03-25T10:24:50;8.20;95.30
64226;DHT22;50545;56.064;26.178;2024-03-25T10:27:20;8.50;94.30
64226;DHT22;50545;56.064;26.178;2024-03-25T10:29:58;8.40;92.30
64226;DHT22;50545;56.064;26.178;2024-03-25T10:32:25;8.40;93.40
64226;DHT22;50545;56.064;26.178;2024-03-25T10:34:55;8.60;93.60
64226;DHT22;50545;56.064;26.178;2024-03-25T10:37:21;8.80;92.20
64226;DHT22;50545;56.064;26.178;2024-03-25T10:39:50;8.70;91.90
64226;DHT22;50545;56.064;26.178;2024-03-25T10:42:20;8.60;91.50
64226;DHT22;50545;56.064;26.178;2024-03-25T10:44:47;8.50;92.50
64226;DHT22;50545;56.064;26.178;2024-03-25T10:47:23;8.40;92.20
64226;DHT22;50545;56.064;26.178;2024-03-25T10:49:58;8.40;91.90
64226;DHT22;50545;56.064;26.178;2024-03-25T10:52:26;8.50;92.30
64226;DHT22;50545;56.064;26.178;2024-03-25T10:54:55;8.50;92.80
64226;DHT22;50545;56.064;26.178;2024-03-25T10:57:22;8.50;92.30
64226;DHT22;50545;56.064;26.178;2024-03-25T10:59:49;8.70;91.70
64226;DHT22;50545;56.064;26.178;2024-03-25T11:02:16;9.00;90.20
64226;DHT22;50545;56.064;26.178;2024-03-25T11:04:44;9.00;87.50
64226;DHT22;50545;56.064;26.178;2024-03-25T11:07:12;8.70;85.10
64226;DHT22;50545;56.064;26.178;2024-03-25T11:09:40;8.50;86.70
64226;DHT22;50545;56.064;26.178;2024-03-25T11:12:10;8.20;88.70
64226;DHT22;50545;56.064;26.178;2024-03-25T11:14:37;8.10;88.00
64226;DHT22;50545;56.064;26.178;2024-03-25T11:17:15;7.90;89.20
64226;DHT22;50545;56.064;26.178;2024-03-25T11:19:44;7.90;90.00
64226;DHT22;50545;56.064;26.178;2024-03-25T11:22:11;7.90;91.00
64226;DHT22;50545;56.064;26.178;2024-03-25T11:24:37;7.90;91.50
64226;DHT22;50545;56.064;26.178;2024-03-25T11:27:08;7.90;90.60
64226;DHT22;50545;56.064;26.178;2024-03-25T11:29:34;7.80;90.40
64226;DHT22;50545;56.064;26.178;2024-03-25T11:32:05;7.80;90.70
64226;DHT22;50545;56.064;26.178;2024-03-25T11:34:31;7.80;90.50
64226;DHT22;50545;56.064;26.178;2024-03-25T11:36:58;7.80;90.80
64226;DHT22;50545;56.064;26.178;2024-03-25T11:39:24;7.70;90.30
64226;DHT22;50545;56.064;26.178;2024-03-25T11:41:54;7.70;91.30
64226;DHT22;50545;56.064;26.178;2024-03-25T11:44:21;7.70;92.80
64226;DHT22;50545;56.064;26.178;2024-03-25T11:46:51;7.80;92.00
64226;DHT22;50545;56.064;26.178;2024-03-25T11:49:21;7.90;92.00
64226;DHT22;50545;56.064;26.178;2024-03-25T11:51:47;7.90;91.70
64226;DHT22;50545;56.064;26.178;2024-03-25T11:54:14;8.10;92.60
64226;DHT22;50545;56.064;26.178;2024-03-25T11:56:41;8.00;91.80
64226;DHT22;50545;56.064;26.178;2024-03-25T11:59:09;8.10;92.80
64226;DHT22;50545;56.064;26.178;2024-03-25T12:01:37;8.00;92.80
64226;DHT22;50545;56.064;26.178;2024-03-25T12:04:17;8.10;92.80
64226;DHT22;50545;56.064;26.178;2024-03-25T12:06:44;8.20;92.70
64226;DHT22;50545;56.064;26.178;2024-03-25T12:09:11;8.30;93.40
64226;DHT22;50545;56.064;26.178;2024-03-25T12:11:56;8.40;91.60
64226;DHT22;50545;56.064;26.178;2024-03-25T12:14:24;8.40;92.10
64226;DHT22;50545;56.064;26.178;2024-03-25T12:16:53;8.50;92.00
64226;DHT22;50545;56.064;26.178;2024-03-25T12:19:20;8.60;91.30
64226;DHT22;50545;56.064;26.178;2024-03-25T12:21:49;8.70;90.90
64226;DHT22;50545;56.064;26.178;2024-03-25T12:24:15;8.80;91.70
64226;DHT22;50545;56.064;26.178;2024-03-25T12:26:42;8.90;90.80
64226;DHT22;50545;56.064;26.178;2024-03-25T12:29:08;9.10;90.90
64226;DHT22;50545;56.064;26.178;2024-03-25T12:31:34;9.10;91.40
64226;DHT22;50545;56.064;26.178;2024-03-25T12:34:00;9.20;90.70
64226;DHT22;50545;56.064;26.178;2024-03-25T12:36:27;9.10;90.10
64226;DHT22;50545;56.064;26.178;2024-03-25T12:38:56;9.10;90.30
64226;DHT22;50545;56.064;26.178;2024-03-25T12:41:23;9.10;89.90
64226;DHT22;50545;56.064;26.178;2024-03-25T12:43:50;9.00;89.80
64226;DHT22;50545;56.064;26.178;2024-03-25T12:46:17;8.90;90.20
64226;DHT22;50545;56.064;26.178;2024-03-25T12:48:44;8.90;91.20
64226;DHT22;50545;56.064;26.178;2024-03-25T12:51:13;9.00;90.70
64226;DHT22;50545;56.064;26.178;2024-03-25T12:53:40;9.00;90.70
64226;DHT22;50545;56.064;26.178;2024-03-25T12:56:06;9.20;89.70
64226;DHT22;50545;56.064;26.178;2024-03-25T12:58:33;9.30;89.50
64226;DHT22;50545;56.064;26.178;2024-03-25T13:01:00;9.40;90.00
64226;DHT22;50545;56.064;26.178;2024-03-25T13:03:26;9.60;90.30
64226;DHT22;50545;56.064;26.178;2024-03-25T13:05:52;9.70;88.30
64226;DHT22;50545;56.064;26.178;2024-03-25T13:08:20;9.90;91.00
64226;DHT22;50545;56.064;26.178;2024-03-25T13:10:47;10.10;87.40
64226;DHT22;50545;56.064;26.178;2024-03-25T13:13:14;10.10;85.40
64226;DHT22;50545;56.064;26.178;2024-03-25T13:15:42;10.10;86.90
64226;DHT22;50545;56.064;26.178;2024-03-25T13:18:09;9.80;87.80
64226;DHT22;50545;56.064;26.178;2024-03-25T13:20:35;9.70;87.60
64226;DHT22;50545;56.064;26.178;2024-03-25T13:23:02;9.50;87.50
64226;DHT22;50545;56.064;26.178;2024-03-25T13:25:28;9.30;88.70
64226;DHT22;50545;56.064;26.178;2024-03-25T13:27:54;9.20;88.70
64226;DHT22;50545;56.064;26.178;2024-03-25T13:30:20;9.10;89.00
64226;DHT22;50545;56.064;26.178;2024-03-25T13:32:48;9.00;90.10
64226;DHT22;50545;56.064;26.178;2024-03-25T13:35:15;8.90;90.00
64226;DHT22;50545;56.064;26.178;2024-03-25T13:37:42;8.70;91.00
64226;DHT22;50545;56.064;26.178;2024-03-25T13:40:08;8.50;91.30
64226;DHT22;50545;56.064;26.178;2024-03-25T13:42:35;8.40;91.50
64226;DHT22;50545;56.064;26.178;2024-03-25T13:45:01;8.30;91.70
64226;DHT22;50545;56.064;26.178;2024-03-25T13:47:27;8.20;91.90
64226;DHT22;50545;56.064;26.178;2024-03-25T13:50:07;8.10;91.60
64226;DHT22;50545;56.064;26.178;2024-03-25T13:52:34;8.10;91.90
64226;DHT22;50545;56.064;26.178;2024-03-25T13:55:04;8.10;91.80
64226;DHT22;50545;56.064;26.178;2024-03-25T13:57:31;8.10;92.10
64226;DHT22;50545;56.064;26.178;2024-03-25T13:59:57;8.10;92.10
64226;DHT22;50545;56.064;26.178;2024-03-25T14:02:23;8.10;92.10
64226;DHT22;50545;56.064;26.178;2024-03-25T14:04:50;8.10;91.60
64226;DHT22;50545;56.064;26.178;2024-03-25T14:07:16;8.10;91.30
64226;DHT22;50545;56.064;26.178;2024-03-25T14:09:42;8.10;91.20
64226;DHT22;50545;56.064;26.178;2024-03-25T14:12:08;8.10;90.70
64226;DHT22;50545;56.064;26.178;2024-03-25T14:14:35;8.10;91.20
64226;DHT22;50545;56.064;26.178;2024-03-25T14:17:01;8.00;91.10
64226;DHT22;50545;56.064;26.178;2024-03-25T14:19:27;8.00;90.00
64226;DHT22;50545;56.064;26.178;2024-03-25T14:21:53;7.90;89.60
64226;DHT22;50545;56.064;26.178;2024-03-25T14:24:19;7.90;90.30
64226;DHT22;50545;56.064;26.178;2024-03-25T14:26:46;7.90;92.00
64226;DHT22;50545;56.064;26.178;2024-03-25T14:29:12;7.90;92.10
64226;DHT22;50545;56.064;26.178;2024-03-25T14:31:38;7.80;91.90
64226;DHT22;50545;56.064;26.178;2024-03-25T14:34:04;7.70;91.90
64226;DHT22;50545;56.064;26.178;2024-03-25T14:36:31;7.60;92.20
64226;DHT22;50545;56.064;26.178;2024-03-25T14:38:57;7.40;91.30
64226;DHT22;50545;56.064;26.178;2024-03-25T14:41:23;7.20;91.50
64226;DHT22;50545;56.064;26.178;2024-03-25T14:43:49;6.90;92.60
64226;DHT22;50545;56.064;26.178;2024-03-25T14:46:16;6.60;94.10
64226;DHT22;50545;56.064;26.178;2024-03-25T14:48:43;6.40;95.60
64226;DHT22;50545;56.064;26.178;2024-03-25T14:51:09;6.20;96.20
64226;DHT22;50545;56.064;26.178;2024-03-25T14:53:35;6.10;97.30
64226;DHT22;50545;56.064;26.178;2024-03-25T14:56:01;6.00;97.50
64226;DHT22;50545;56.064;26.178;2024-03-25T14:58:29;5.90;98.20
64226;DHT22;50545;56.064;26.178;2024-03-25T15:00:57;5.80;99.80
64226;DHT22;50545;56.064;26.178;2024-03-25T15:03:23;5.90;99.20
64226;DHT22;50545;56.064;26.178;2024-03-25T15:05:49;6.00;98.00
64226;DHT22;50545;56.064;26.178;2024-03-25T15:08:16;6.10;98.00
64226;DHT22;50545;56.064;26.178;2024-03-25T15:10:45;6.50;99.90
64226;DHT22;50545;56.064;26.178;2024-03-25T15:13:11;6.90;99.90
64226;DHT22;50545;56.064;26.178;2024-03-25T15:15:41;7.20;99.60
64226;DHT22;50545;56.064;26.178;2024-03-25T15:18:09;7.50;98.50
64226;DHT22;50545;56.064;26.178;2024-03-25T15:20:35;7.70;98.00
64226;DHT22;50545;56.064;26.178;2024-03-25T15:23:01;7.80;98.40
64226;DHT22;50545;56.064;26.178;2024-03-25T15:25:27;7.90;99.00
64226;DHT22;50545;56.064;26.178;2024-03-25T15:27:53;8.00;97.80
64226;DHT22;50545;56.064;26.178;2024-03-25T15:30:20;8.00;97.30